Time;durP1;ratioP1;P1;durP2;ratioP2;P2;SDS_P1;SDS_P2;PMS_P1;PMS_P2;Temp;Humidity;BMP_temperature;BMP_pressure;BME280_temperature;BME280_humidity;BME280_pressure;Samples;Min_cycle;Max_cycle;Signal;HPM_P1;HPM_P2
2021/06/23 00:04:44;;;;;;;17.85;3.03;;;;;;;;;;10112171;28;20137;-68
2021/06/23 00:09:40;;;;;;;13.20;2.75;;;;;;;;;;10106641;28;20236;-68
2021/06/23 00:14:36;;;;;;;8.70;2.33;;;;;;;;;;10114136;28;20133;-68
2021/06/23 00:19:33;;;;;;;13.20;2.58;;;;;;;;;;10108107;28;20134;-68
2021/06/23 00:24:29;;;;;;;15.80;2.95;;;;;;;;;;10108680;28;20721;-68
2021/06/23 00:29:25;;;;;;;8.82;2.13;;;;;;;;;;10103982;28;20038;-68
2021/06/23 00:40:15;;;;;;;17.10;2.65;;;;;;;;;;9989687;29;20602;-67
2021/06/23 00:45:15;;;;;;;9.82;2.47;;;;;;;;;;9988608;29;20135;-71
2021/06/23 00:50:21;;;;;;;14.20;2.63;;;;;;;;;;9984445;29;20054;-71
2021/06/23 00:55:21;;;;;;;15.23;2.63;;;;;;;;;;9991656;29;20108;-69
2021/06/23 01:00:24;;;;;;;10.23;2.45;;;;;;;;;;9985651;29;20166;-69
2021/06/23 01:05:21;;;;;;;12.80;2.40;;;;;;;;;;9983194;29;20048;-70
2021/06/23 01:10:18;;;;;;;11.25;2.35;;;;;;;;;;9984717;29;20488;-68
2021/06/23 01:15:14;;;;;;;14.15;2.75;;;;;;;;;;10008718;28;20066;-68
2021/06/23 01:20:12;;;;;;;16.63;2.80;;;;;;;;;;10113378;28;20043;-68
2021/06/23 01:25:10;;;;;;;10.10;3.22;;;;;;;;;;10101358;28;20139;-70
2021/06/23 01:30:07;;;;;;;19.40;4.63;;;;;;;;;;10105601;28;20054;-68
2021/06/23 01:35:04;;;;;;;15.00;3.40;;;;;;;;;;10106444;28;20117;-68
2021/06/23 01:40:00;;;;;;;15.85;4.57;;;;;;;;;;10111836;28;20574;-68
2021/06/23 01:44:58;;;;;;;10.88;3.45;;;;;;;;;;10110187;28;20085;-69
2021/06/23 01:49:55;;;;;;;21.13;4.75;;;;;;;;;;10105848;28;20126;-69
2021/06/23 01:54:52;;;;;;;15.45;3.55;;;;;;;;;;10110953;28;20544;-69
2021/06/23 01:59:49;;;;;;;19.40;4.65;;;;;;;;;;10116674;28;20145;-67
2021/06/23 02:04:52;;;;;;;14.65;4.18;;;;;;;;;;10115570;28;20129;-68
2021/06/23 02:09:55;;;;;;;12.93;3.65;;;;;;;;;;10118893;28;20046;-67
2021/06/23 02:14:59;;;;;;;21.70;5.00;;;;;;;;;;10116731;28;20405;-68
2021/06/23 02:19:57;;;;;;;12.93;3.70;;;;;;;;;;10124953;28;20047;-68
2021/06/23 02:24:56;;;;;;;12.02;3.83;;;;;;;;;;10109735;28;20487;-68
2021/06/23 02:29:52;;;;;;;14.65;4.63;;;;;;;;;;10110210;28;20573;-68
2021/06/23 02:35:14;;;;;;;15.35;3.92;;;;;;;;;;10114445;28;20780;-70
2021/06/23 02:46:24;;;;;;;16.85;4.75;;;;;;;;;;10024728;29;20036;-70
2021/06/23 02:51:39;;;;;;;20.17;4.30;;;;;;;;;;10098913;28;20049;-70
2021/06/23 02:56:36;;;;;;;15.35;4.35;;;;;;;;;;10109234;28;20043;-70
2021/06/23 03:01:32;;;;;;;18.15;4.78;;;;;;;;;;10106372;28;20053;-70
2021/06/23 03:06:29;;;;;;;19.00;4.93;;;;;;;;;;10108482;28;20540;-70
2021/06/23 03:11:31;;;;;;;15.50;4.90;;;;;;;;;;10110929;28;20150;-71
2021/06/23 03:16:27;;;;;;;13.48;4.80;;;;;;;;;;10113421;28;20046;-71
2021/06/23 03:21:25;;;;;;;19.73;4.88;;;;;;;;;;10104477;28;20043;-70
2021/06/23 03:26:22;;;;;;;16.13;4.45;;;;;;;;;;10105222;28;20098;-69
2021/06/23 03:31:18;;;;;;;14.35;6.22;;;;;;;;;;10113796;28;20053;-69
2021/06/23 03:36:14;;;;;;;14.70;6.55;;;;;;;;;;10110366;28;20523;-69
2021/06/23 03:41:11;;;;;;;14.75;6.70;;;;;;;;;;10116042;28;20043;-69
2021/06/23 03:46:07;;;;;;;16.40;5.95;;;;;;;;;;10102587;28;20050;-71
2021/06/23 03:51:04;;;;;;;14.23;5.65;;;;;;;;;;10108212;28;20122;-69
2021/06/23 03:56:00;;;;;;;15.75;6.40;;;;;;;;;;10109946;28;20602;-68
2021/06/23 04:00:56;;;;;;;14.40;5.72;;;;;;;;;;10108673;28;20050;-69
2021/06/23 04:05:52;;;;;;;14.25;5.53;;;;;;;;;;10111288;28;20050;-69
2021/06/23 04:10:49;;;;;;;18.38;7.15;;;;;;;;;;10102120;28;20126;-68
2021/06/23 04:15:45;;;;;;;21.42;6.60;;;;;;;;;;10122811;28;20240;-68
2021/06/23 04:20:41;;;;;;;17.92;6.78;;;;;;;;;;10102636;28;20545;-69
2021/06/23 04:25:38;;;;;;;20.23;7.47;;;;;;;;;;10105189;28;20054;-68
2021/06/23 04:30:34;;;;;;;21.17;6.93;;;;;;;;;;10094291;28;20039;-69
2021/06/23 04:35:30;;;;;;;20.65;5.70;;;;;;;;;;10114388;28;20451;-69
2021/06/23 04:40:27;;;;;;;17.48;5.93;;;;;;;;;;10109936;28;20102;-69
2021/06/23 04:45:24;;;;;;;28.38;6.15;;;;;;;;;;10094424;28;20110;-69
2021/06/23 04:50:20;;;;;;;25.10;5.90;;;;;;;;;;10114177;28;20042;-70
2021/06/23 04:55:17;;;;;;;22.00;6.10;;;;;;;;;;10107003;28;20097;-69
2021/06/23 05:00:14;;;;;;;23.17;5.00;;;;;;;;;;10108966;28;20139;-70
2021/06/23 05:05:10;;;;;;;23.58;5.60;;;;;;;;;;10107979;28;20459;-69
2021/06/23 05:10:07;;;;;;;22.55;5.25;;;;;;;;;;10093257;28;20046;-69
2021/06/23 05:15:03;;;;;;;22.73;4.97;;;;;;;;;;10108620;28;20445;-70
2021/06/23 05:20:00;;;;;;;24.00;5.25;;;;;;;;;;10100832;28;20081;-70
2021/06/23 05:24:57;;;;;;;19.23;5.35;;;;;;;;;;10106262;28;20113;-69
2021/06/23 05:29:53;;;;;;;18.65;5.32;;;;;;;;;;10112318;28;20073;-69
2021/06/23 05:34:50;;;;;;;26.00;5.47;;;;;;;;;;10106786;28;20122;-70
2021/06/23 05:39:46;;;;;;;18.25;4.50;;;;;;;;;;10118798;28;20050;-69
2021/06/23 05:44:42;;;;;;;19.73;4.63;;;;;;;;;;10113632;28;20047;-69
2021/06/23 05:49:39;;;;;;;17.35;5.55;;;;;;;;;;10115039;28;20081;-69
2021/06/23 05:54:35;;;;;;;24.02;5.20;;;;;;;;;;10116005;28;20070;-70
2021/06/23 05:59:31;;;;;;;15.88;4.38;;;;;;;;;;10116277;28;20139;-70
2021/06/23 06:04:28;;;;;;;13.15;4.32;;;;;;;;;;10111381;28;20134;-69
2021/06/23 06:09:24;;;;;;;18.40;5.00;;;;;;;;;;10110880;28;20051;-70
2021/06/23 06:14:21;;;;;;;19.58;5.00;;;;;;;;;;10114787;28;20043;-70
2021/06/23 06:19:17;;;;;;;16.63;5.75;;;;;;;;;;10101962;28;20098;-68
2021/06/23 06:24:14;;;;;;;18.17;7.32;;;;;;;;;;10116408;28;20081;-69
2021/06/23 06:29:10;;;;;;;20.42;6.25;;;;;;;;;;10107482;28;20457;-69
2021/06/23 06:34:06;;;;;;;19.00;6.03;;;;;;;;;;10108781;28;20126;-69
2021/06/23 06:39:03;;;;;;;20.40;6.43;;;;;;;;;;10113854;28;20074;-69
2021/06/23 06:43:59;;;;;;;18.70;6.68;;;;;;;;;;10113535;28;20133;-71
2021/06/23 06:48:55;;;;;;;19.02;6.25;;;;;;;;;;10103880;28;20130;-71
2021/06/23 06:53:56;;;;;;;18.33;5.88;;;;;;;;;;10111323;28;20039;-71
2021/06/23 06:58:52;;;;;;;15.05;5.18;;;;;;;;;;10111290;28;20054;-71
2021/06/23 07:03:49;;;;;;;19.98;4.38;;;;;;;;;;10110237;28;20552;-70
2021/06/23 07:08:46;;;;;;;15.18;4.70;;;;;;;;;;10111925;28;20149;-69
2021/06/23 07:13:49;;;;;;;19.95;4.28;;;;;;;;;;10103202;28;20057;-69
2021/06/23 07:18:48;;;;;;;15.30;4.75;;;;;;;;;;10114645;28;20696;-67
2021/06/23 07:23:46;;;;;;;13.15;3.80;;;;;;;;;;10108321;28;20066;-72
2021/06/23 07:28:53;;;;;;;16.33;4.07;;;;;;;;;;10110953;28;20082;-68
2021/06/23 07:33:53;;;;;;;14.13;3.83;;;;;;;;;;10105284;28;20046;-73
2021/06/23 07:38:49;;;;;;;10.63;2.88;;;;;;;;;;10107090;28;20109;-68
2021/06/23 07:43:46;;;;;;;14.13;3.30;;;;;;;;;;10115812;28;20054;-69
2021/06/23 07:48:43;;;;;;;13.27;3.53;;;;;;;;;;10103145;28;20069;-69
2021/06/23 08:14:26;;;;;;;8.65;2.38;;;;;;;;;;10109004;28;20074;-68
2021/06/23 08:19:22;;;;;;;10.52;2.28;;;;;;;;;;10102783;28;20043;-72
2021/06/23 08:24:19;;;;;;;10.75;2.85;;;;;;;;;;10115418;28;20532;-67
2021/06/23 08:29:15;;;;;;;9.85;2.78;;;;;;;;;;10107479;28;20096;-72
2021/06/23 08:34:12;;;;;;;10.27;2.58;;;;;;;;;;10108150;28;20161;-72
2021/06/23 08:39:08;;;;;;;11.48;3.50;;;;;;;;;;10117924;28;20105;-70
2021/06/23 08:44:04;;;;;;;8.00;2.13;;;;;;;;;;10112929;28;20137;-70
2021/06/23 08:49:01;;;;;;;7.45;1.67;;;;;;;;;;10109701;28;20106;-70
2021/06/23 08:53:58;;;;;;;6.32;2.45;;;;;;;;;;10106781;28;20130;-70
2021/06/23 08:58:54;;;;;;;7.70;2.17;;;;;;;;;;10103490;28;20158;-71
2021/06/23 09:04:09;;;;;;;10.52;2.40;;;;;;;;;;10114104;28;20456;-71
2021/06/23 09:09:14;;;;;;;6.05;2.42;;;;;;;;;;10107498;28;20038;-71
2021/06/23 09:14:11;;;;;;;8.48;2.60;;;;;;;;;;10112761;28;20070;-71
2021/06/23 09:19:26;;;;;;;9.93;3.13;;;;;;;;;;10109944;28;20134;-71
2021/06/23 09:24:43;;;;;;;11.15;3.17;;;;;;;;;;10120556;28;20093;-70
2021/06/23 09:29:39;;;;;;;6.60;2.53;;;;;;;;;;10117075;28;20118;-71
2021/06/23 09:34:42;;;;;;;10.60;3.72;;;;;;;;;;10110458;28;20134;-71
2021/06/23 09:39:39;;;;;;;8.38;3.20;;;;;;;;;;10122624;28;20077;-71
2021/06/23 09:44:35;;;;;;;10.63;3.40;;;;;;;;;;10106943;28;20055;-71
2021/06/23 09:49:37;;;;;;;11.07;3.97;;;;;;;;;;10104067;28;20114;-70
2021/06/23 09:54:46;;;;;;;9.32;2.78;;;;;;;;;;10114675;28;20081;-71
2021/06/23 09:59:48;;;;;;;8.48;3.53;;;;;;;;;;10116059;28;20101;-72
2021/06/23 10:04:45;;;;;;;9.60;3.15;;;;;;;;;;10110725;28;20713;-71
2021/06/23 10:09:41;;;;;;;7.68;3.45;;;;;;;;;;10112129;28;20133;-72
2021/06/23 10:14:41;;;;;;;7.65;3.85;;;;;;;;;;10103139;28;20712;-71
2021/06/23 10:19:38;;;;;;;10.65;2.83;;;;;;;;;;10109874;28;20134;-71
2021/06/23 10:24:39;;;;;;;11.27;2.92;;;;;;;;;;10107421;28;20066;-70
2021/06/23 10:29:36;;;;;;;9.80;2.90;;;;;;;;;;10120091;28;20035;-70
2021/06/23 10:34:35;;;;;;;12.13;3.80;;;;;;;;;;10105736;28;20039;-70
2021/06/23 10:39:33;;;;;;;11.38;3.75;;;;;;;;;;10118316;28;20042;-68
2021/06/23 10:44:35;;;;;;;9.77;3.50;;;;;;;;;;10110174;28;20050;-70
2021/06/23 10:49:37;;;;;;;8.55;2.97;;;;;;;;;;10111884;28;20093;-71
2021/06/23 10:54:34;;;;;;;11.80;2.42;;;;;;;;;;10114352;28;20496;-71
2021/06/23 10:59:31;;;;;;;7.47;2.25;;;;;;;;;;10102085;28;20051;-71
2021/06/23 11:04:27;;;;;;;9.73;2.35;;;;;;;;;;10113184;28;20137;-70
2021/06/23 11:09:26;;;;;;;8.07;2.45;;;;;;;;;;10111820;28;20078;-70
2021/06/23 11:14:22;;;;;;;7.90;2.55;;;;;;;;;;10113901;28;20409;-69
2021/06/23 11:19:19;;;;;;;8.07;2.40;;;;;;;;;;10112369;28;20148;-71
2021/06/23 11:24:16;;;;;;;7.50;2.53;;;;;;;;;;10109690;28;20074;-71
2021/06/23 11:29:15;;;;;;;9.30;2.40;;;;;;;;;;10107531;28;20461;-68
2021/06/23 11:34:31;;;;;;;5.03;2.10;;;;;;;;;;10103587;28;20039;-71
2021/06/23 11:39:27;;;;;;;7.70;2.17;;;;;;;;;;10106078;28;20047;-71
2021/06/23 11:44:24;;;;;;;10.23;2.35;;;;;;;;;;10108434;28;20154;-71
2021/06/23 11:49:29;;;;;;;8.88;2.72;;;;;;;;;;10111456;28;20101;-71
2021/06/23 11:54:25;;;;;;;9.43;2.67;;;;;;;;;;10106619;28;20074;-71
2021/06/23 11:59:22;;;;;;;8.68;2.50;;;;;;;;;;10107805;28;20043;-71
2021/06/23 12:04:18;;;;;;;7.30;2.35;;;;;;;;;;10110479;28;20039;-71
2021/06/23 12:09:15;;;;;;;9.73;3.38;;;;;;;;;;10109772;28;20074;-71
2021/06/23 12:14:11;;;;;;;12.07;3.85;;;;;;;;;;10102242;28;20051;-71
2021/06/23 12:19:07;;;;;;;9.50;3.17;;;;;;;;;;10107330;28;20682;-71
2021/06/23 12:24:04;;;;;;;13.05;3.90;;;;;;;;;;10109120;28;20630;-71
2021/06/23 12:29:01;;;;;;;12.55;3.03;;;;;;;;;;10124311;28;20075;-70
2021/06/23 12:33:57;;;;;;;8.52;3.20;;;;;;;;;;10105042;28;20081;-71
2021/06/23 12:38:58;;;;;;;7.75;2.95;;;;;;;;;;10105081;28;20054;-69
2021/06/23 12:43:55;;;;;;;9.45;3.35;;;;;;;;;;10106802;28;20129;-70
2021/06/23 12:48:51;;;;;;;11.02;4.05;;;;;;;;;;10100221;28;20259;-70
2021/06/23 12:53:47;;;;;;;15.25;3.65;;;;;;;;;;10102634;28;20394;-70
2021/06/23 12:58:43;;;;;;;9.98;3.45;;;;;;;;;;10103842;28;20479;-70
2021/06/23 13:03:40;;;;;;;10.00;3.30;;;;;;;;;;10108245;28;20145;-71
2021/06/23 13:08:37;;;;;;;9.05;3.40;;;;;;;;;;10109196;28;20134;-71
2021/06/23 13:13:33;;;;;;;9.10;3.22;;;;;;;;;;10106801;28;20489;-71
2021/06/23 13:18:29;;;;;;;13.18;4.05;;;;;;;;;;10104144;28;20043;-71
2021/06/23 13:23:26;;;;;;;13.13;4.50;;;;;;;;;;10107687;28;20039;-70
2021/06/23 13:28:22;;;;;;;16.63;3.08;;;;;;;;;;10100711;28;20130;-70
2021/06/23 13:33:19;;;;;;;9.45;3.25;;;;;;;;;;10111445;28;20049;-71
2021/06/23 13:38:15;;;;;;;9.13;3.28;;;;;;;;;;10106103;28;20038;-71
2021/06/23 13:43:11;;;;;;;10.50;3.30;;;;;;;;;;10105101;28;20093;-71
2021/06/23 13:48:08;;;;;;;6.57;2.78;;;;;;;;;;10115751;28;20047;-71
2021/06/23 13:53:04;;;;;;;9.88;2.80;;;;;;;;;;10116814;28;20628;-71
2021/06/23 13:58:01;;;;;;;8.10;2.67;;;;;;;;;;10123149;28;20090;-71
2021/06/23 14:03:00;;;;;;;9.75;2.35;;;;;;;;;;10112109;28;20057;-71
2021/06/23 14:08:00;;;;;;;6.45;1.90;;;;;;;;;;10119613;28;20508;-70
2021/06/23 14:12:57;;;;;;;9.82;2.17;;;;;;;;;;10114759;28;21203;-71
2021/06/23 14:17:54;;;;;;;8.73;2.25;;;;;;;;;;10106855;28;20047;-71
2021/06/23 14:22:51;;;;;;;10.02;2.20;;;;;;;;;;10110098;28;20413;-70
2021/06/23 14:27:47;;;;;;;6.28;2.00;;;;;;;;;;10114931;28;20133;-71
2021/06/23 14:32:44;;;;;;;6.75;1.95;;;;;;;;;;10119004;28;20066;-71
2021/06/23 14:37:40;;;;;;;6.50;1.88;;;;;;;;;;10111721;28;20133;-70
2021/06/23 14:42:37;;;;;;;7.93;1.80;;;;;;;;;;10114622;28;20042;-69
2021/06/23 14:47:33;;;;;;;8.45;1.90;;;;;;;;;;10110971;28;20074;-69
2021/06/23 14:52:30;;;;;;;6.80;2.35;;;;;;;;;;10116252;28;20042;-70
2021/06/23 14:57:26;;;;;;;6.13;2.03;;;;;;;;;;10107378;28;20073;-69
2021/06/23 15:02:23;;;;;;;8.10;1.80;;;;;;;;;;10124191;28;20043;-70
2021/06/23 15:07:25;;;;;;;6.18;1.40;;;;;;;;;;10109186;28;20050;-68
2021/06/23 15:12:21;;;;;;;5.30;1.50;;;;;;;;;;10111590;28;20046;-70
2021/06/23 15:17:17;;;;;;;5.93;1.48;;;;;;;;;;10107942;28;20070;-71
2021/06/23 15:22:14;;;;;;;5.72;1.67;;;;;;;;;;10108731;28;20053;-68
2021/06/23 15:27:11;;;;;;;10.68;2.25;;;;;;;;;;10110691;28;20042;-69
2021/06/23 15:32:08;;;;;;;5.78;1.40;;;;;;;;;;10108257;28;20038;-70
2021/06/23 15:37:05;;;;;;;7.15;1.92;;;;;;;;;;10109216;28;20066;-69
2021/06/23 15:42:02;;;;;;;5.85;1.58;;;;;;;;;;10118974;28;20077;-70
2021/06/23 15:46:58;;;;;;;7.45;2.33;;;;;;;;;;10106611;28;20409;-71
2021/06/23 15:51:54;;;;;;;7.28;1.90;;;;;;;;;;10118801;28;20093;-70
2021/06/23 15:56:51;;;;;;;7.35;1.70;;;;;;;;;;10114063;28;20155;-70
2021/06/23 16:01:47;;;;;;;6.43;1.48;;;;;;;;;;10106360;28;20078;-70
2021/06/23 16:06:44;;;;;;;8.57;2.30;;;;;;;;;;10104752;28;20105;-68
2021/06/23 16:11:40;;;;;;;6.88;1.80;;;;;;;;;;10104395;28;20134;-69
2021/06/23 16:16:37;;;;;;;11.75;1.83;;;;;;;;;;10112628;28;20565;-70
2021/06/23 16:21:35;;;;;;;6.47;1.50;;;;;;;;;;10108678;28;20047;-70
2021/06/23 16:26:34;;;;;;;5.88;1.30;;;;;;;;;;10103673;28;20066;-70
2021/06/23 16:31:30;;;;;;;7.43;1.50;;;;;;;;;;10114345;28;20050;-69
2021/06/23 16:36:26;;;;;;;5.60;1.48;;;;;;;;;;10120573;28;20495;-68
2021/06/23 16:41:23;;;;;;;4.88;1.50;;;;;;;;;;10103141;28;20043;-69
2021/06/23 16:46:19;;;;;;;6.78;1.77;;;;;;;;;;10110399;28;20054;-69
2021/06/23 16:51:16;;;;;;;6.88;1.80;;;;;;;;;;10115075;28;20038;-71
2021/06/23 16:56:12;;;;;;;10.25;2.10;;;;;;;;;;10106908;28;20055;-70
2021/06/23 17:01:13;;;;;;;11.98;2.47;;;;;;;;;;10104556;28;20137;-69
2021/06/23 17:06:13;;;;;;;5.40;1.70;;;;;;;;;;10095299;28;20122;-69
2021/06/23 17:11:10;;;;;;;8.60;1.85;;;;;;;;;;10105398;28;20082;-67
2021/06/23 17:16:06;;;;;;;8.98;2.40;;;;;;;;;;10097685;28;20616;-69
2021/06/23 17:21:03;;;;;;;6.65;1.83;;;;;;;;;;10089379;28;20047;-69
2021/06/23 17:26:18;;;;;;;7.93;1.80;;;;;;;;;;10105789;28;20054;-70
2021/06/23 17:31:15;;;;;;;6.35;2.30;;;;;;;;;;10120930;28;20051;-68
2021/06/23 17:36:11;;;;;;;6.22;2.17;;;;;;;;;;10104275;28;20051;-70
2021/06/23 17:41:08;;;;;;;8.68;1.80;;;;;;;;;;10117281;28;20501;-69
2021/06/23 17:46:04;;;;;;;7.55;2.17;;;;;;;;;;10105082;28;20112;-70
2021/06/23 17:51:01;;;;;;;8.77;1.90;;;;;;;;;;10114413;28;20047;-71
2021/06/23 17:55:57;;;;;;;8.77;3.17;;;;;;;;;;10108246;28;20043;-68
2021/06/23 18:00:59;;;;;;;10.23;4.35;;;;;;;;;;10107884;28;20039;-70
2021/06/23 18:05:56;;;;;;;9.27;3.25;;;;;;;;;;10111100;28;20050;-68
2021/06/23 18:10:53;;;;;;;6.75;2.63;;;;;;;;;;10104282;28;20066;-70
2021/06/23 18:15:50;;;;;;;7.93;2.20;;;;;;;;;;10098921;28;20691;-69
2021/06/23 18:20:48;;;;;;;11.75;4.32;;;;;;;;;;10101157;28;20059;-70
2021/06/23 18:25:45;;;;;;;11.63;4.72;;;;;;;;;;10106850;28;20481;-69
2021/06/23 18:30:41;;;;;;;9.68;4.45;;;;;;;;;;10105904;28;20066;-69
2021/06/23 18:35:38;;;;;;;8.60;3.63;;;;;;;;;;10101857;28;20112;-69
2021/06/23 18:40:35;;;;;;;15.85;2.45;;;;;;;;;;10100215;28;20047;-70
2021/06/23 18:45:31;;;;;;;11.73;2.80;;;;;;;;;;10108395;28;20130;-69
2021/06/23 18:50:27;;;;;;;9.75;3.28;;;;;;;;;;10119221;28;20058;-68
2021/06/23 18:55:27;;;;;;;9.68;3.13;;;;;;;;;;10118388;28;20065;-69
2021/06/23 19:00:24;;;;;;;7.72;3.58;;;;;;;;;;10107363;28;20070;-69
2021/06/23 19:05:22;;;;;;;8.93;3.00;;;;;;;;;;10113132;28;20128;-70
2021/06/23 19:10:18;;;;;;;11.00;2.40;;;;;;;;;;10103910;28;20515;-68
2021/06/23 19:15:15;;;;;;;8.05;3.50;;;;;;;;;;10110043;28;20069;-69
2021/06/23 19:20:14;;;;;;;10.85;3.83;;;;;;;;;;10108983;28;20125;-70
2021/06/23 19:25:11;;;;;;;6.07;2.75;;;;;;;;;;10096295;28;20149;-69
2021/06/23 19:30:09;;;;;;;8.77;3.20;;;;;;;;;;10101323;28;20046;-69
2021/06/23 19:35:07;;;;;;;7.82;3.25;;;;;;;;;;10106203;28;20046;-70
2021/06/23 19:40:04;;;;;;;9.20;2.35;;;;;;;;;;10107032;28;20400;-70
2021/06/23 19:45:01;;;;;;;9.15;3.42;;;;;;;;;;10117082;28;20051;-69
2021/06/23 19:49:57;;;;;;;10.52;2.55;;;;;;;;;;10112604;28;20039;-72
2021/06/23 19:54:53;;;;;;;9.63;2.30;;;;;;;;;;10106277;28;20512;-70
2021/06/23 19:59:50;;;;;;;10.35;2.50;;;;;;;;;;10108325;28;20397;-68
2021/06/23 20:04:46;;;;;;;9.60;3.22;;;;;;;;;;10108494;28;20637;-67
2021/06/23 20:09:43;;;;;;;7.75;2.78;;;;;;;;;;10103028;28;20043;-69
2021/06/23 20:14:39;;;;;;;8.57;2.80;;;;;;;;;;10101317;28;20860;-69
2021/06/23 20:19:36;;;;;;;8.95;2.58;;;;;;;;;;10098326;28;20584;-69
2021/06/23 20:24:32;;;;;;;7.53;3.17;;;;;;;;;;10119015;28;20054;-69
2021/06/23 20:29:29;;;;;;;12.15;3.72;;;;;;;;;;10100854;28;20054;-68
2021/06/23 20:34:25;;;;;;;14.40;4.95;;;;;;;;;;10104244;28;20047;-70
2021/06/23 20:39:22;;;;;;;12.45;4.38;;;;;;;;;;10105847;28;20131;-69
2021/06/23 20:44:19;;;;;;;9.13;2.75;;;;;;;;;;10118432;28;20042;-70
2021/06/23 20:49:16;;;;;;;7.88;2.70;;;;;;;;;;10113378;28;20090;-70
2021/06/23 20:54:15;;;;;;;6.53;2.90;;;;;;;;;;10107889;28;20126;-70
2021/06/23 20:59:12;;;;;;;8.20;3.00;;;;;;;;;;10110855;28;20050;-69
2021/06/23 21:04:09;;;;;;;8.90;3.65;;;;;;;;;;10103915;28;20102;-69
2021/06/23 21:09:05;;;;;;;11.00;3.08;;;;;;;;;;10093065;28;20051;-69
2021/06/23 21:14:02;;;;;;;9.98;3.70;;;;;;;;;;10110964;28;20090;-70
2021/06/23 21:18:58;;;;;;;9.10;3.60;;;;;;;;;;10112861;28;20059;-70
2021/06/23 21:24:23;;;;;;;9.15;3.38;;;;;;;;;;10091860;28;20117;-70
2021/06/23 21:29:33;;;;;;;10.25;3.72;;;;;;;;;;10103516;28;20063;-70
2021/06/23 21:34:30;;;;;;;7.53;2.88;;;;;;;;;;10096542;28;20043;-70
2021/06/23 21:39:26;;;;;;;10.43;3.65;;;;;;;;;;10106070;28;20043;-70
2021/06/23 21:44:25;;;;;;;9.50;3.78;;;;;;;;;;10101552;28;20078;-69
2021/06/23 21:49:21;;;;;;;9.75;3.60;;;;;;;;;;10105214;28;20038;-69
2021/06/23 21:54:50;;;;;;;9.50;3.53;;;;;;;;;;10097785;28;20072;-69
2021/06/23 22:05:11;;;;;;;7.78;3.30;;;;;;;;;;10098069;28;20055;-70
2021/06/23 22:10:10;;;;;;;8.65;3.88;;;;;;;;;;10094680;28;20047;-70
2021/06/23 22:15:11;;;;;;;8.40;3.90;;;;;;;;;;10109091;28;20073;-70
2021/06/23 22:20:09;;;;;;;8.52;4.20;;;;;;;;;;10116463;28;20506;-69
2021/06/23 22:25:08;;;;;;;10.32;4.30;;;;;;;;;;10112479;28;20051;-68
2021/06/23 22:30:06;;;;;;;11.13;4.07;;;;;;;;;;10110486;28;20051;-68
2021/06/23 22:35:02;;;;;;;13.40;3.80;;;;;;;;;;10110790;28;20559;-68
2021/06/23 22:40:00;;;;;;;9.80;3.38;;;;;;;;;;10112930;28;20078;-68
2021/06/23 22:45:00;;;;;;;9.27;3.65;;;;;;;;;;10111053;28;20093;-68
2021/06/23 22:55:10;;;;;;;8.45;3.97;;;;;;;;;;10104235;28;20130;-67
2021/06/23 23:00:18;;;;;;;10.02;4.07;;;;;;;;;;10107304;28;20567;-72
2021/06/23 23:05:24;;;;;;;10.32;3.90;;;;;;;;;;10107243;28;20042;-71
2021/06/23 23:10:22;;;;;;;9.52;3.95;;;;;;;;;;10115059;28;21494;-71
2021/06/23 23:15:20;;;;;;;10.93;3.50;;;;;;;;;;10108141;28;20617;-68
2021/06/23 23:20:18;;;;;;;9.77;3.17;;;;;;;;;;10116241;28;20078;-68
2021/06/23 23:25:16;;;;;;;13.07;4.40;;;;;;;;;;10111025;28;20464;-68
2021/06/23 23:30:13;;;;;;;11.98;4.25;;;;;;;;;;10099210;28;20055;-68
2021/06/23 23:35:11;;;;;;;8.43;3.20;;;;;;;;;;10108313;28;21078;-69
2021/06/23 23:40:09;;;;;;;7.35;3.60;;;;;;;;;;10104875;28;20089;-68
2021/06/23 23:45:06;;;;;;;8.18;3.28;;;;;;;;;;10110850;28;20053;-71
2021/06/23 23:50:04;;;;;;;12.05;3.63;;;;;;;;;;10101965;28;20134;-68
2021/06/23 23:55:00;;;;;;;7.78;3.15;;;;;;;;;;10106145;28;20129;-70
2021/06/23 23:59:57;;;;;;;8.77;3.72;;;;;;;;;;10107604;28;20125;-70
